メインページ
METAR-TAF:

METAR-TAF

空港 :

エル・アルト国際空港

ラパス, ボリビア

緯度: 16-31S, 経度: 068-11W, 海抜: 4058m

現時点の気象観測

当レポートは44分前の05:00(UTC)に作成
南/南東の風 5kt、南東からの間で変化する
気温
気圧 1039 hPa
視程10km以上
高度400ftの雲はほとんどない
高度1700ftの雲はほとんどない, 積乱雲.
高度7000ftの千切れ雲あり

METAR: SLLP 210500Z 16005KT 130V190 9999 FEW004 FEW017CB BKN070 07/04Q1039

時間: 01:44 (05:44 UTC)

予報

当レポートは1時間44分前の04:00(UTC)に作成
予報は21日の 06時(UTC)から 22日の 06時(UTC)まで有効
の風 5kt
視程: 2000m
高度200ftの雲はほとんどない
高度1200ftの雲は散在している
高度1700ftの雲はほとんどない, 積乱雲.
高度7000ftの千切れ雲あり
近辺で霧
21日の 07時(UTC)から 21日の 10時(UTC)まで一時的に
21日の 13時(UTC)から 21日の 16時(UTC)まで徐々に
視程10km以上
高度1700ftの雲は散在している
高度7000ftの雲は散在している
21日の 17時(UTC)から 21日の 21時(UTC)まで一時的に
北東の風 13kt
視程: 8000m
高度2000ftの雲はほとんどない, 積乱雲.
激しい雷雨, 雨

TAF: SLLP 210400Z 2106/2206 08005KT 2000E VCFG FEW002 SCT012 FEW017CB BKN070 TX13/2120Z TN04/2110Z TEMPO 2107/2110 RA BECMG 2113/2116 9999 NSW SCT017 SCT070 TEMPO 2117/2121 05013KT 8000 TSRA FEW020CB

4,000以上の空港の気象観測と天気予報(METAR報とTAF報)

利用可能な観測所は地図上に黄色い丸と赤い丸で示す。

丸の上にカーソルを重ねると観測所名を参照できる。

次にクリックすると気象観測と天気予報を参照できる。

マップの切り替え:黒色「×」印の緑ボタンをクリックして拡大、「-」印の緑ボタンをクリックして縮小、緑色の三角印をクリックして隣りの地図に切り替え


METAR-TAF: